Eastern Wv Regional Shepherd Field
KMRB : now visible

Airfield :











YOU CAN JOIN US ON...

 
LOGIN :

Register | Disclaimer

   EN    FR    IT 

 









Legend :    VFR   Marginal VFR   IFR   Intensive IFR   Very Intensive IFR
Visi :
Ceiling :
>= 8 km
>= 3000ft
5 to 8 km
1000 to 3000 ft
1500m to 5 km
500 to 1000 ft
800 to 1500m
200 to 500 ft
< 800m
< 200 ft
Symbols :   Thunderstorms  Fog  Heavy snow  Heavy precipitations  Wind > 20 kt







- Airport Elevation : 565 ft


KMRB - Eastern Wv Regional Shepherd Field

CURRENT METAR :
  • 191553Z 15007KT 10SM FEW055 22/16 A2969 RMK AO2 SLP050 T02170161

EXPIRED METARs :
  • 191453Z 17006KT 10SM CLR 21/16 A2970 RMK AO2 SLP054 T02110156 50001
  • 191353Z 16010KT 10SM CLR 20/16 A2971 RMK AO2 SLP055 T02000156

TAF KMRB
Valid from the 19 at 12:00 until the 20 at 12:00 UTC


191120Z 1912/2012 17009KT P6SM BKN100
FM191500 17013G21KT P6SM OVC035
FM191800 16012G20KT 6SM SHRA VCTS OVC035CB
FM192300 16010G18KT 5SM SHRA VCTS OVC020CB
FM200300 15008KT 6SM -SHRA OVC025
FM200600 10008KT P6SM OVC040
KZDC FIR / North America



MET'MAP, your aeronautical weather chart ! - Copyright ORBIFLY December 2007 - Disclaimer

ORBIFLY MET'MAP TEAM :

Programming & Development : Alexandra Zaïnal
Concept & Development : Baudouin d'Aumeries
Co-Development & Prog : Marc-Olivier Méhu
Technical & hardware support : Manuel Goepfert

Contact : metmap@orbifly.com




SOURCES & CREDITS :

   NOAA       Earth
Advisory